createdAt,value
2017-08-01T00:00:28.346Z,12.10
2017-08-01T00:02:55.887Z,11.73
2017-08-01T00:05:23.437Z,7.80
2017-08-01T00:07:51.002Z,5.37
2017-08-01T00:10:18.553Z,10.40
2017-08-01T00:12:46.573Z,7.37
2017-08-01T00:15:14.102Z,5.97
2017-08-01T00:17:41.634Z,3.13
2017-08-01T00:20:09.169Z,3.03
2017-08-01T00:22:36.707Z,2.50
2017-08-01T00:25:04.256Z,2.43
2017-08-01T00:27:31.819Z,2.50
2017-08-01T00:29:59.373Z,2.70
2017-08-01T00:32:26.901Z,2.43
2017-08-01T00:34:54.900Z,2.90
2017-08-01T00:37:22.444Z,2.60
2017-08-01T00:39:49.967Z,3.07
2017-08-01T00:42:17.524Z,3.00
2017-08-01T00:44:45.831Z,2.90
2017-08-01T00:47:13.397Z,2.87
2017-08-01T00:49:40.954Z,3.00
2017-08-01T00:52:08.498Z,3.07
2017-08-01T00:54:36.012Z,3.40
2017-08-01T00:57:03.856Z,3.20
2017-08-01T00:59:31.399Z,2.77
2017-08-01T01:01:58.927Z,2.80
2017-08-01T01:04:26.844Z,2.67
2017-08-01T01:06:54.365Z,2.90
2017-08-01T01:09:21.924Z,2.83
2017-08-01T01:11:49.470Z,3.47
2017-08-01T01:14:17.752Z,2.93
2017-08-01T01:16:46.041Z,2.40
2017-08-01T01:19:13.573Z,2.70
2017-08-01T01:21:41.108Z,2.33
2017-08-01T01:24:08.644Z,3.10
2017-08-01T01:26:36.176Z,3.10
2017-08-01T01:29:03.722Z,3.30
2017-08-01T01:31:31.260Z,2.30
2017-08-01T01:33:58.815Z,3.20
2017-08-01T01:36:26.374Z,2.70
2017-08-01T01:38:53.901Z,3.50
2017-08-01T01:41:21.446Z,2.70
2017-08-01T01:43:48.998Z,3.00
2017-08-01T01:46:16.527Z,2.80
2017-08-01T01:48:44.059Z,2.83
2017-08-01T01:51:11.595Z,2.60
2017-08-01T01:53:39.129Z,2.60
2017-08-01T01:56:06.682Z,3.10
2017-08-01T01:58:34.208Z,3.33
2017-08-01T02:01:01.743Z,3.83
2017-08-01T02:03:29.544Z,3.37
2017-08-01T02:05:57.089Z,3.10
2017-08-01T02:08:25.401Z,3.50
2017-08-01T02:10:52.947Z,2.40
2017-08-01T02:13:20.459Z,2.83
2017-08-01T02:15:47.988Z,2.97
2017-08-01T02:18:15.536Z,2.57
2017-08-01T02:20:43.077Z,2.50
2017-08-01T02:23:11.383Z,2.63
2017-08-01T02:25:38.934Z,2.60
2017-08-01T02:28:06.457Z,2.80
2017-08-01T02:30:34.860Z,2.60
2017-08-01T02:33:02.651Z,2.30
2017-08-01T02:35:30.178Z,2.10
2017-08-01T02:37:57.714Z,2.23
2017-08-01T02:40:25.245Z,2.50
2017-08-01T02:42:52.772Z,2.53
2017-08-01T02:45:20.305Z,2.70
2017-08-01T02:47:48.611Z,3.73
2017-08-01T02:50:16.130Z,3.30
2017-08-01T02:52:44.540Z,4.40
2017-08-01T02:55:12.073Z,3.40
2017-08-01T02:57:39.610Z,3.53
2017-08-01T03:00:07.175Z,3.47
2017-08-01T03:02:34.697Z,3.87
2017-08-01T03:05:02.231Z,3.20
2017-08-01T03:07:29.776Z,4.00
2017-08-01T03:09:57.339Z,3.83
2017-08-01T03:12:25.661Z,3.07
2017-08-01T03:14:53.216Z,2.97
2017-08-01T03:17:20.773Z,3.70
2017-08-01T03:19:48.305Z,3.17
2017-08-01T03:22:15.841Z,3.70
2017-08-01T03:24:44.130Z,4.23
2017-08-01T03:27:12.744Z,4.20
2017-08-01T03:29:40.285Z,3.97
2017-08-01T03:32:07.810Z,4.37
2017-08-01T03:34:35.344Z,4.47
2017-08-01T03:37:02.877Z,4.80
2017-08-01T03:39:30.440Z,4.60
2017-08-01T03:41:57.986Z,3.77
2017-08-01T03:44:25.543Z,3.80
2017-08-01T03:46:53.085Z,4.40
2017-08-01T03:49:20.884Z,5.53
2017-08-01T03:51:48.405Z,4.17
2017-08-01T03:54:15.958Z,4.10
2017-08-01T03:56:43.735Z,4.53
2017-08-01T03:59:11.262Z,4.23
2017-08-01T04:01:38.801Z,3.97
2017-08-01T04:04:06.347Z,3.77
2017-08-01T04:06:33.895Z,3.77
2017-08-01T04:09:01.442Z,4.43
2017-08-01T04:11:29.001Z,4.00
2017-08-01T04:13:56.553Z,4.83
2017-08-01T04:16:24.146Z,4.37
2017-08-01T04:18:51.690Z,5.17
2017-08-01T04:21:19.251Z,3.60
2017-08-01T04:23:46.800Z,3.00
2017-08-01T04:26:14.344Z,3.20
2017-08-01T04:28:41.872Z,2.73
2017-08-01T04:31:09.397Z,3.53
2017-08-01T04:33:36.925Z,3.37
2017-08-01T04:36:04.465Z,2.73
2017-08-01T04:38:31.994Z,3.17
2017-08-01T04:40:59.540Z,3.23
2017-08-01T04:43:27.062Z,3.27
2017-08-01T04:45:54.901Z,3.80
2017-08-01T04:48:22.432Z,2.80
2017-08-01T04:50:49.968Z,3.33
2017-08-01T04:53:17.508Z,3.33
2017-08-01T04:55:45.072Z,3.57
2017-08-01T04:58:12.982Z,3.10
2017-08-01T05:00:40.543Z,3.60
2017-08-01T05:03:08.062Z,3.43
2017-08-01T05:05:35.944Z,3.70
2017-08-01T05:08:03.483Z,3.53
2017-08-01T05:10:31.038Z,3.63
2017-08-01T05:12:58.606Z,3.50
2017-08-01T05:15:26.157Z,3.63
2017-08-01T05:17:53.707Z,3.67
2017-08-01T05:20:21.240Z,3.37
2017-08-01T05:22:48.777Z,3.40
2017-08-01T05:25:16.322Z,3.70
2017-08-01T05:27:43.852Z,3.47
2017-08-01T05:30:11.389Z,3.33
2017-08-01T05:32:39.688Z,3.43
2017-08-01T05:35:07.213Z,3.30
2017-08-01T05:37:34.738Z,4.00
2017-08-01T05:40:02.290Z,3.90
2017-08-01T05:42:29.830Z,4.30
2017-08-01T05:44:57.362Z,3.63
2017-08-01T05:47:25.667Z,4.20
2017-08-01T05:49:53.202Z,3.20
2017-08-01T05:52:20.712Z,3.43
2017-08-01T05:54:48.251Z,4.10
2017-08-01T05:57:15.802Z,3.27
2017-08-01T05:59:43.346Z,4.40
2017-08-01T06:02:10.868Z,3.47
2017-08-01T06:04:38.486Z,4.20
2017-08-01T06:07:06.048Z,4.00
2017-08-01T06:09:33.603Z,3.87
2017-08-01T06:12:01.130Z,4.80
2017-08-01T06:14:28.924Z,4.47
2017-08-01T06:16:56.449Z,3.93
2017-08-01T06:19:23.970Z,3.67
2017-08-01T06:21:51.809Z,4.10
2017-08-01T06:24:19.367Z,4.57
2017-08-01T06:26:46.893Z,4.23
2017-08-01T06:29:14.437Z,3.67
2017-08-01T06:31:41.966Z,3.90
2017-08-01T06:34:09.500Z,4.03
2017-08-01T06:36:37.016Z,3.73
2017-08-01T06:39:04.574Z,3.87
2017-08-01T06:41:32.112Z,3.67
2017-08-01T06:43:59.658Z,3.57
2017-08-01T06:46:28.433Z,3.23
2017-08-01T06:48:55.957Z,3.83
2017-08-01T06:51:24.302Z,4.37
2017-08-01T06:53:51.848Z,3.80
2017-08-01T06:56:19.362Z,4.20
2017-08-01T06:58:47.727Z,4.93
2017-08-01T07:01:15.267Z,3.97
2017-08-01T07:03:42.810Z,3.87
2017-08-01T07:06:10.370Z,5.07
2017-08-01T07:08:38.705Z,4.27
2017-08-01T07:11:06.255Z,3.70
2017-08-01T07:13:33.777Z,4.20
2017-08-01T07:16:01.329Z,4.00
2017-08-01T07:18:28.866Z,4.30
2017-08-01T07:20:56.388Z,3.80
2017-08-01T07:23:23.932Z,3.37
2017-08-01T07:25:51.495Z,3.47
2017-08-01T07:28:19.802Z,4.10
2017-08-01T07:30:47.340Z,3.60
2017-08-01T07:33:14.947Z,4.30
2017-08-01T07:35:42.505Z,3.70
2017-08-01T07:38:10.054Z,4.40
2017-08-01T07:40:37.592Z,4.40
2017-08-01T07:43:05.109Z,3.90
2017-08-01T07:45:32.704Z,4.27
2017-08-01T07:48:00.226Z,4.60
2017-08-01T07:50:27.821Z,4.60
2017-08-01T07:52:55.632Z,3.80
2017-08-01T07:55:23.158Z,5.00
2017-08-01T07:57:50.689Z,4.40
2017-08-01T08:00:18.984Z,4.47
2017-08-01T08:02:46.516Z,6.23
2017-08-01T08:05:14.055Z,5.50
2017-08-01T08:07:41.602Z,6.13
2017-08-01T08:10:09.153Z,5.50
2017-08-01T08:12:36.694Z,5.77
2017-08-01T08:15:04.239Z,6.20
2017-08-01T08:17:31.765Z,5.83
2017-08-01T08:20:00.318Z,6.17
2017-08-01T08:22:27.859Z,6.70
2017-08-01T08:24:55.376Z,5.60
2017-08-01T08:27:23.663Z,5.40
2017-08-01T08:29:51.180Z,5.90
2017-08-01T08:32:18.740Z,5.43
2017-08-01T08:34:46.281Z,6.03
2017-08-01T08:37:13.846Z,5.13
2017-08-01T08:39:41.422Z,6.27
2017-08-01T08:42:09.004Z,6.00
2017-08-01T08:44:37.640Z,5.40
2017-08-01T08:47:05.186Z,5.67
2017-08-01T08:49:32.727Z,6.20
2017-08-01T08:52:00.269Z,5.63
2017-08-01T08:54:28.561Z,5.20
2017-08-01T08:56:56.553Z,5.63
2017-08-01T08:59:24.092Z,5.97
2017-08-01T09:01:51.627Z,5.17
2017-08-01T09:04:19.151Z,5.00
2017-08-01T09:06:46.684Z,5.10
2017-08-01T09:09:14.229Z,4.30
2017-08-01T09:11:41.768Z,4.87
2017-08-01T09:14:10.084Z,4.60
2017-08-01T09:16:37.629Z,4.30
2017-08-01T09:19:05.193Z,4.20
2017-08-01T09:21:33.185Z,4.20
2017-08-01T09:24:00.727Z,3.97
2017-08-01T09:26:28.256Z,4.20
2017-08-01T09:28:55.803Z,4.13
2017-08-01T09:31:24.097Z,4.40
2017-08-01T09:33:51.634Z,4.07
2017-08-01T09:36:19.182Z,4.43
2017-08-01T09:38:46.710Z,3.63
2017-08-01T09:41:14.826Z,4.40
2017-08-01T09:43:42.367Z,3.87
2017-08-01T09:46:10.204Z,3.53
2017-08-01T09:48:37.738Z,3.57
2017-08-01T09:51:05.308Z,3.90
2017-08-01T09:53:32.847Z,3.30
2017-08-01T09:56:00.388Z,3.70
2017-08-01T09:58:27.939Z,3.70
2017-08-01T10:00:56.263Z,3.17
2017-08-01T10:03:23.810Z,3.53
2017-08-01T10:05:51.360Z,3.03
2017-08-01T10:08:18.890Z,3.30
2017-08-01T10:10:46.843Z,2.87
2017-08-01T10:13:14.372Z,3.70
2017-08-01T10:15:41.983Z,3.83
2017-08-01T10:18:09.637Z,3.53
2017-08-01T10:20:37.164Z,4.47
2017-08-01T10:23:04.763Z,4.10
2017-08-01T10:25:32.508Z,3.90
2017-08-01T10:28:00.092Z,4.10
2017-08-01T10:30:28.711Z,4.50
2017-08-01T10:32:56.247Z,4.20
2017-08-01T10:35:24.571Z,4.50
2017-08-01T10:37:52.118Z,4.20
2017-08-01T10:40:19.664Z,4.70
2017-08-01T10:42:47.197Z,4.20
2017-08-01T10:45:14.775Z,5.30
2017-08-01T10:47:43.202Z,6.20
2017-08-01T10:50:10.755Z,6.27
2017-08-01T10:52:38.297Z,5.57
2017-08-01T10:55:05.826Z,4.20
2017-08-01T11:00:07.323Z,3.90
2017-08-01T11:02:35.293Z,4.83
2017-08-01T11:05:02.840Z,4.07
2017-08-01T11:07:30.380Z,3.40
2017-08-01T11:09:58.280Z,3.57
2017-08-01T11:12:25.827Z,4.03
2017-08-01T11:14:53.366Z,3.63
2017-08-01T11:17:20.906Z,3.40
2017-08-01T11:19:49.449Z,4.60
2017-08-01T11:22:17.025Z,2.73
2017-08-01T11:24:45.332Z,3.20
2017-08-01T11:27:13.650Z,3.63
2017-08-01T11:29:41.188Z,3.03
2017-08-01T11:32:08.709Z,3.07
2017-08-01T11:34:36.534Z,2.73
2017-08-01T11:37:04.058Z,3.70
2017-08-01T11:39:31.642Z,3.27
2017-08-01T11:41:59.204Z,3.10
2017-08-01T11:44:26.738Z,2.83
2017-08-01T11:46:54.295Z,3.10
2017-08-01T11:49:21.838Z,3.20
2017-08-01T11:51:49.368Z,2.83
2017-08-01T11:54:16.927Z,2.00
2017-08-01T11:56:44.451Z,2.60
2017-08-01T11:59:11.994Z,2.53
2017-08-01T12:01:39.556Z,2.30
2017-08-01T12:04:07.150Z,2.07
2017-08-01T12:06:34.718Z,3.33
2017-08-01T12:09:02.261Z,2.87
2017-08-01T12:11:29.818Z,2.40
2017-08-01T12:13:57.380Z,2.53
2017-08-01T12:16:24.917Z,3.50
2017-08-01T12:18:52.472Z,2.83
2017-08-01T12:21:20.597Z,2.77
2017-08-01T12:23:48.149Z,2.60
2017-08-01T12:26:15.675Z,2.57
2017-08-01T12:28:43.225Z,2.53
2017-08-01T12:31:11.125Z,3.10
2017-08-01T12:33:39.034Z,2.70
2017-08-01T12:36:06.561Z,2.53
2017-08-01T12:38:34.098Z,2.60
2017-08-01T12:41:01.755Z,2.67
2017-08-01T12:43:29.643Z,2.60
2017-08-01T12:45:57.357Z,2.70
2017-08-01T12:48:24.919Z,3.30
2017-08-01T12:50:53.642Z,2.50
2017-08-01T12:53:21.169Z,2.93
2017-08-01T12:55:49.179Z,2.80
2017-08-01T12:58:16.722Z,2.50
2017-08-01T13:00:44.249Z,2.27
2017-08-01T13:03:11.809Z,2.40
2017-08-01T13:05:40.096Z,2.10
2017-08-01T13:08:07.917Z,1.83
2017-08-01T13:10:35.464Z,1.73
2017-08-01T13:13:02.994Z,2.20
2017-08-01T13:15:30.550Z,2.50
2017-08-01T13:17:58.094Z,2.40
2017-08-01T13:20:26.013Z,2.20
2017-08-01T13:22:53.551Z,2.10
2017-08-01T13:25:21.073Z,2.57
2017-08-01T13:27:48.615Z,2.80
2017-08-01T13:30:16.885Z,2.40
2017-08-01T13:32:44.720Z,2.27
2017-08-01T13:35:12.251Z,2.83
2017-08-01T13:37:39.785Z,3.07
2017-08-01T13:40:07.336Z,2.80
2017-08-01T13:42:35.634Z,2.67
2017-08-01T13:45:03.638Z,2.90
2017-08-01T13:47:31.187Z,3.03
2017-08-01T13:49:58.734Z,3.07
2017-08-01T13:52:26.287Z,2.80
2017-08-01T13:54:53.824Z,3.67
2017-08-01T13:57:21.746Z,2.83
2017-08-01T13:59:49.275Z,3.13
2017-08-01T14:02:16.802Z,2.70
2017-08-01T14:04:44.352Z,3.17
2017-08-01T14:07:11.878Z,6.23
2017-08-01T14:09:39.717Z,2.73
2017-08-01T14:12:07.317Z,2.90
2017-08-01T14:14:34.859Z,2.83
2017-08-01T14:17:02.483Z,2.30
2017-08-01T14:19:30.115Z,2.60
2017-08-01T14:21:57.715Z,3.30
2017-08-01T14:24:25.295Z,3.20
2017-08-01T14:26:52.908Z,2.60
2017-08-01T14:29:20.447Z,2.77
2017-08-01T14:31:48.038Z,3.13
2017-08-01T14:34:15.888Z,2.60
2017-08-01T14:36:43.438Z,3.30
2017-08-01T14:39:11.024Z,3.30
2017-08-01T14:41:38.628Z,2.80
2017-08-01T14:44:06.187Z,3.20
2017-08-01T14:46:33.790Z,3.03
2017-08-01T14:49:01.315Z,3.23
2017-08-01T14:51:28.896Z,2.80
2017-08-01T14:53:56.700Z,3.23
2017-08-01T14:56:24.272Z,2.30
2017-08-01T14:58:51.868Z,2.60
2017-08-01T15:01:19.530Z,2.57
2017-08-01T15:03:47.063Z,3.03
2017-08-01T15:06:14.905Z,3.00
2017-08-01T15:08:42.471Z,2.20
2017-08-01T15:11:10.020Z,3.33
2017-08-01T15:13:37.551Z,2.70
2017-08-01T15:16:05.092Z,2.80
2017-08-01T15:18:32.630Z,3.03
2017-08-01T15:21:00.142Z,2.83
2017-08-01T15:23:27.707Z,3.27
2017-08-01T15:25:56.018Z,2.30
2017-08-01T15:28:23.561Z,2.80
2017-08-01T15:30:51.465Z,2.90
2017-08-01T15:33:18.982Z,2.93
2017-08-01T15:35:46.516Z,2.90
2017-08-01T15:38:14.085Z,3.00
2017-08-01T15:40:42.372Z,3.50
2017-08-01T15:43:10.208Z,2.97
2017-08-01T15:45:37.750Z,2.70
2017-08-01T15:48:05.300Z,2.47
2017-08-01T15:50:32.861Z,2.90
2017-08-01T15:53:00.387Z,3.00
2017-08-01T15:55:27.927Z,2.87
2017-08-01T15:57:56.509Z,2.63
2017-08-01T16:00:24.049Z,3.77
2017-08-01T16:02:51.576Z,2.60
2017-08-01T16:05:19.115Z,2.73
2017-08-01T16:07:46.661Z,2.70
2017-08-01T16:10:14.183Z,2.87
2017-08-01T16:12:42.132Z,2.67
2017-08-01T16:15:09.663Z,2.70
2017-08-01T16:17:37.195Z,2.33
2017-08-01T16:20:04.741Z,2.27
2017-08-01T16:22:33.041Z,2.50
2017-08-01T16:25:00.896Z,3.17
2017-08-01T16:27:29.185Z,2.90
2017-08-01T16:29:56.704Z,2.60
2017-08-01T16:32:24.273Z,2.63
2017-08-01T16:34:52.571Z,2.90
2017-08-01T16:37:20.118Z,2.50
2017-08-01T16:39:47.642Z,2.80
2017-08-01T16:42:15.228Z,2.70
2017-08-01T16:44:43.062Z,3.23
2017-08-01T16:47:10.600Z,3.33
2017-08-01T16:49:38.139Z,2.93
2017-08-01T16:52:05.694Z,2.47
2017-08-01T16:54:33.230Z,2.40
2017-08-01T16:57:01.532Z,2.33
2017-08-01T16:59:29.077Z,2.57
2017-08-01T17:01:56.630Z,2.23
2017-08-01T17:04:24.943Z,2.63
2017-08-01T17:06:52.471Z,2.60
2017-08-01T17:09:20.438Z,2.87
2017-08-01T17:11:48.030Z,2.80
2017-08-01T17:14:15.634Z,2.70
2017-08-01T17:16:44.030Z,2.70
2017-08-01T17:19:11.621Z,2.67
2017-08-01T17:21:39.455Z,2.90
2017-08-01T17:24:07.761Z,2.53
2017-08-01T17:26:35.325Z,2.93
2017-08-01T17:29:02.901Z,3.00
2017-08-01T17:31:30.485Z,3.30
2017-08-01T17:33:58.309Z,2.80
2017-08-01T17:36:25.871Z,3.63
2017-08-01T17:38:53.558Z,3.10
2017-08-01T17:41:21.147Z,3.50
2017-08-01T17:43:48.679Z,5.37
2017-08-01T17:46:16.299Z,3.57
2017-08-01T17:48:43.830Z,3.37
2017-08-01T17:51:11.421Z,3.07
2017-08-01T17:53:39.735Z,3.10
2017-08-01T17:56:07.335Z,3.10
2017-08-01T17:58:35.272Z,3.00
2017-08-01T18:01:02.835Z,3.37
2017-08-01T18:03:30.384Z,2.83
2017-08-01T18:05:57.937Z,3.23
2017-08-01T18:08:25.565Z,3.53
2017-08-01T18:10:53.577Z,3.40
2017-08-01T18:13:21.109Z,4.20
2017-08-01T18:15:48.658Z,3.30
2017-08-01T18:18:16.310Z,3.13
2017-08-01T18:20:43.843Z,3.00
2017-08-01T18:23:12.698Z,3.30
2017-08-01T18:25:40.228Z,4.20
2017-08-01T18:28:07.762Z,3.50
2017-08-01T18:30:35.328Z,3.57
2017-08-01T18:33:03.617Z,3.47
2017-08-01T18:35:31.273Z,3.20
2017-08-01T18:37:59.097Z,3.20
2017-08-01T18:40:26.644Z,2.80
2017-08-01T18:42:54.227Z,3.50
2017-08-01T18:45:21.759Z,3.13
2017-08-01T18:47:49.294Z,2.90
2017-08-01T18:50:16.910Z,3.13
2017-08-01T18:52:44.510Z,3.30
2017-08-01T18:55:12.074Z,2.73
2017-08-01T18:57:39.910Z,3.50
2017-08-01T19:00:07.546Z,3.43
2017-08-01T19:02:35.162Z,3.80
2017-08-01T19:05:02.823Z,3.33
2017-08-01T19:07:30.436Z,4.40
2017-08-01T19:09:58.300Z,3.30
2017-08-01T19:12:26.778Z,3.37
2017-08-01T19:14:54.370Z,3.30
2017-08-01T19:17:21.980Z,3.90
2017-08-01T19:19:49.579Z,3.80
2017-08-01T19:22:17.948Z,4.00
2017-08-01T19:24:45.595Z,3.60
2017-08-01T19:27:13.212Z,3.83
2017-08-01T19:29:40.768Z,3.80
2017-08-01T19:32:08.366Z,3.60
2017-08-01T19:34:36.181Z,3.77
2017-08-01T19:37:05.724Z,3.87
2017-08-01T19:39:33.313Z,4.07
2017-08-01T19:42:01.169Z,5.40
2017-08-01T19:44:28.762Z,4.27
2017-08-01T19:46:57.315Z,4.10
2017-08-01T19:49:24.957Z,3.80
2017-08-01T19:51:52.633Z,6.00
2017-08-01T19:54:20.297Z,4.37
2017-08-01T19:56:47.917Z,4.00
2017-08-01T19:59:17.441Z,4.10
2017-08-01T20:01:45.299Z,6.63
2017-08-01T20:04:13.170Z,4.80
2017-08-01T20:06:40.756Z,4.97
2017-08-01T20:09:08.384Z,4.33
2017-08-01T20:11:36.008Z,3.90
2017-08-01T20:14:03.948Z,5.47
2017-08-01T20:16:32.393Z,4.57
2017-08-01T20:18:59.953Z,4.77
2017-08-01T20:21:27.534Z,4.47
2017-08-01T20:23:55.171Z,4.63
2017-08-01T20:26:22.777Z,5.80
2017-08-01T20:28:50.353Z,5.40
2017-08-01T20:31:18.003Z,5.83
2017-08-01T20:33:45.682Z,5.83
2017-08-01T20:36:14.014Z,5.90
2017-08-01T20:38:41.628Z,6.33
2017-08-01T20:41:10.396Z,6.00
2017-08-01T20:43:38.046Z,5.80
2017-08-01T20:46:05.657Z,5.47
2017-08-01T20:48:33.269Z,5.00
2017-08-01T20:51:00.820Z,5.00
2017-08-01T20:53:28.681Z,6.63
2017-08-01T20:55:57.606Z,5.27
2017-08-01T20:58:25.227Z,5.70
2017-08-01T21:00:52.825Z,5.80
2017-08-01T21:03:20.361Z,6.33
2017-08-01T21:05:48.209Z,5.07
2017-08-01T21:08:15.802Z,6.00
2017-08-01T21:10:43.346Z,5.87
2017-08-01T21:13:10.973Z,5.63
2017-08-01T21:15:38.576Z,6.20
2017-08-01T21:18:06.159Z,5.63
2017-08-01T21:20:33.793Z,5.77
2017-08-01T21:23:01.401Z,5.67
2017-08-01T21:25:29.032Z,5.63
2017-08-01T21:27:56.589Z,5.77
2017-08-01T21:30:24.191Z,6.00
2017-08-01T21:32:51.817Z,6.33
2017-08-01T21:35:19.460Z,5.43
2017-08-01T21:37:47.043Z,5.80
2017-08-01T21:40:14.659Z,6.60
2017-08-01T21:42:42.257Z,6.60
2017-08-01T21:45:09.808Z,8.10
2017-08-01T21:47:37.378Z,8.33
2017-08-01T21:50:04.945Z,7.10
2017-08-01T21:52:32.489Z,7.40
2017-08-01T21:55:00.146Z,7.50
2017-08-01T21:57:27.774Z,7.00
2017-08-01T21:59:55.376Z,7.00
2017-08-01T22:02:23.263Z,7.13
2017-08-01T22:04:50.892Z,7.30
2017-08-01T22:07:18.707Z,6.40
2017-08-01T22:09:46.271Z,6.03
2017-08-01T22:12:13.850Z,6.43
2017-08-01T22:14:41.411Z,5.63
2017-08-01T22:17:09.045Z,7.00
2017-08-01T22:19:36.900Z,5.60
2017-08-01T22:22:05.722Z,6.37
2017-08-01T22:24:33.292Z,6.93
2017-08-01T22:27:00.855Z,6.17
2017-08-01T22:29:29.837Z,5.83
2017-08-01T22:31:57.618Z,5.73
2017-08-01T22:34:25.156Z,5.50
2017-08-01T22:36:52.714Z,5.10
2017-08-01T22:39:20.261Z,5.30
2017-08-01T22:41:47.806Z,5.63
2017-08-01T22:44:15.369Z,5.17
2017-08-01T22:46:42.917Z,5.50
2017-08-01T22:49:10.459Z,4.93
2017-08-01T22:51:38.026Z,5.50
2017-08-01T22:54:06.339Z,5.50
2017-08-01T22:56:33.892Z,5.30
2017-08-01T22:59:01.424Z,6.47
2017-08-01T23:01:28.968Z,5.90
2017-08-01T23:03:56.552Z,5.67
2017-08-01T23:06:24.087Z,6.80
2017-08-01T23:08:51.628Z,6.77
2017-08-01T23:11:19.564Z,6.07
2017-08-01T23:13:47.104Z,5.87
2017-08-01T23:16:14.645Z,6.97
2017-08-01T23:18:42.206Z,6.57
2017-08-01T23:21:10.524Z,6.27
2017-08-01T23:23:38.082Z,6.20
2017-08-01T23:26:05.646Z,6.23
2017-08-01T23:28:33.213Z,6.03
2017-08-01T23:31:00.764Z,6.33
2017-08-01T23:33:28.302Z,7.03
2017-08-01T23:35:55.837Z,6.37
2017-08-01T23:38:23.362Z,6.00
2017-08-01T23:40:50.907Z,6.40
2017-08-01T23:43:18.477Z,7.27
2017-08-01T23:45:46.025Z,7.30
2017-08-01T23:48:14.001Z,8.60
2017-08-01T23:50:41.524Z,7.80
2017-08-01T23:53:09.054Z,7.23
2017-08-01T23:55:36.600Z,8.93
2017-08-01T23:58:04.137Z,8.40
